createdAt,value
2023-01-03T00:06:36.612Z,4.10
2023-01-03T00:16:39.929Z,3.35
2023-01-03T00:26:44.686Z,4.10
2023-01-03T00:36:47.412Z,3.38
2023-01-03T00:46:51.633Z,3.63
2023-01-03T00:56:54.701Z,3.83
2023-01-03T01:07:01.289Z,3.17
2023-01-03T01:17:06.186Z,3.95
2023-01-03T01:27:10.544Z,3.90
2023-01-03T01:37:13.252Z,3.65
2023-01-03T01:47:24.999Z,3.85
2023-01-03T01:57:27.962Z,2.75
2023-01-03T02:07:32.014Z,2.97
2023-01-03T02:17:42.293Z,2.55
2023-01-03T02:28:30.535Z,2.63
2023-01-03T02:38:47.569Z,3.22
2023-01-03T02:48:55.152Z,3.00
2023-01-03T02:59:04.012Z,2.97
2023-01-03T03:09:06.986Z,3.92
2023-01-03T03:19:40.818Z,5.38
2023-01-03T03:29:43.577Z,5.43
2023-01-03T03:40:06.331Z,5.30
2023-01-03T03:50:15.498Z,5.57
2023-01-03T04:00:23.899Z,6.50
2023-01-03T04:10:27.223Z,5.78
2023-01-03T04:20:33.161Z,5.40
2023-01-03T04:30:35.857Z,5.10
2023-01-03T04:40:39.942Z,6.10
2023-01-03T04:50:42.649Z,5.60
2023-01-03T05:00:47.023Z,6.00
2023-01-03T05:10:53.321Z,7.00
2023-01-03T05:21:15.096Z,5.68
2023-01-03T05:31:17.992Z,6.47
2023-01-03T05:41:36.031Z,6.00
2023-01-03T05:51:38.763Z,6.07
2023-01-03T06:01:42.831Z,6.18
2023-01-03T06:11:45.770Z,6.03
2023-01-03T06:21:49.827Z,7.35
2023-01-03T06:31:52.519Z,7.68
2023-01-03T06:41:56.539Z,7.10
2023-01-03T06:52:16.813Z,6.70
2023-01-03T07:02:20.997Z,7.60
2023-01-03T07:12:41.500Z,7.35
2023-01-03T07:22:45.759Z,9.30
2023-01-03T07:32:48.575Z,10.00
2023-01-03T07:43:09.937Z,9.95
2023-01-03T07:53:17.150Z,10.18
2023-01-03T08:03:21.464Z,10.50
2023-01-03T08:13:25.147Z,11.25
2023-01-03T08:23:30.418Z,10.45
2023-01-03T08:33:37.796Z,9.75
2023-01-03T08:43:45.034Z,11.25
2023-01-03T08:53:47.841Z,10.25
2023-01-03T09:03:52.178Z,10.57
2023-01-03T09:13:56.800Z,10.55
2023-01-03T09:24:00.946Z,8.75
2023-01-03T09:34:05.313Z,8.90
2023-01-03T09:44:11.195Z,8.52
2023-01-03T09:54:33.675Z,10.07
2023-01-03T10:05:02.637Z,10.80
2023-01-03T10:15:18.156Z,12.75
2023-01-03T10:25:24.674Z,11.75
2023-01-03T10:35:30.372Z,15.93
2023-01-03T10:45:42.740Z,16.38
2023-01-03T10:55:50.760Z,16.35
2023-01-03T11:06:10.723Z,17.77
2023-01-03T11:16:15.753Z,16.30
2023-01-03T11:26:29.366Z,17.63
2023-01-03T11:36:40.460Z,12.05
2023-01-03T11:47:00.974Z,15.40
2023-01-03T11:57:10.802Z,15.80
2023-01-03T12:07:47.103Z,15.18
2023-01-03T12:17:48.424Z,14.20
2023-01-03T12:27:57.967Z,15.95
2023-01-03T12:38:00.664Z,13.07
2023-01-03T12:48:15.165Z,14.80
2023-01-03T12:58:30.272Z,16.05
2023-01-03T13:08:44.165Z,13.90
2023-01-03T13:18:46.883Z,13.77
2023-01-03T13:28:52.283Z,12.52
2023-01-03T13:38:55.606Z,12.73
2023-01-03T13:49:01.338Z,13.13
2023-01-03T13:59:17.791Z,10.55
2023-01-03T14:09:44.624Z,9.45
2023-01-03T14:19:52.205Z,9.15
2023-01-03T14:29:56.986Z,7.75
2023-01-03T14:40:02.138Z,8.07
2023-01-03T14:50:08.729Z,7.90
2023-01-03T15:00:18.931Z,6.55
2023-01-03T15:10:31.805Z,8.37
2023-01-03T15:20:38.383Z,6.85
2023-01-03T15:30:48.655Z,8.40
2023-01-03T15:40:51.919Z,7.00
2023-01-03T15:50:56.961Z,5.97
2023-01-03T16:01:01.480Z,6.50
2023-01-03T16:11:08.085Z,6.05
2023-01-03T16:21:11.179Z,6.30
2023-01-03T16:31:18.558Z,6.82
2023-01-03T16:41:21.324Z,5.50
2023-01-03T16:51:27.679Z,5.45
2023-01-03T17:01:30.676Z,4.93
2023-01-03T17:11:35.186Z,5.38
2023-01-03T17:21:37.896Z,5.22
2023-01-03T17:31:41.943Z,6.18
2023-01-03T17:42:02.360Z,9.07
2023-01-03T17:52:07.815Z,6.80
2023-01-03T18:02:18.857Z,5.85
2023-01-03T18:12:26.639Z,8.52
2023-01-03T18:22:30.037Z,8.27
2023-01-03T18:32:35.726Z,8.40
2023-01-03T18:42:56.182Z,7.68
2023-01-03T18:53:04.115Z,6.43
2023-01-03T19:03:21.131Z,5.07
2023-01-03T19:13:49.638Z,3.92
2023-01-03T19:23:59.776Z,5.05
2023-01-03T19:34:03.860Z,4.30
2023-01-03T19:44:06.561Z,4.82
2023-01-03T19:54:10.592Z,3.88
2023-01-03T20:04:13.894Z,3.10
2023-01-03T20:14:20.777Z,3.33
2023-01-03T20:24:25.809Z,2.63
2023-01-03T20:34:29.829Z,3.20
2023-01-03T20:44:32.539Z,2.50
2023-01-03T20:54:36.561Z,2.20
2023-01-03T21:04:39.640Z,2.40
2023-01-03T21:14:43.664Z,2.00
2023-01-03T21:24:48.689Z,1.88
2023-01-03T21:34:55.267Z,1.50
2023-01-03T21:44:58.138Z,3.13
2023-01-03T21:55:02.612Z,1.73
2023-01-03T22:05:06.048Z,1.52
2023-01-03T22:15:11.369Z,1.42
2023-01-03T22:25:18.895Z,1.70
2023-01-03T22:35:23.203Z,2.00
2023-01-03T22:45:26.679Z,1.25
2023-01-03T22:55:32.364Z,1.30
2023-01-03T23:05:36.367Z,1.33
2023-01-03T23:15:40.518Z,1.13
2023-01-03T23:25:43.254Z,1.30
2023-01-03T23:35:47.293Z,1.45
2023-01-03T23:45:50.042Z,1.25
2023-01-03T23:55:54.275Z,2.03
